createdAt,value
2018-05-21T00:01:16.715Z,18.00
2018-05-21T00:03:44.947Z,18.00
2018-05-21T00:06:14.311Z,17.90
2018-05-21T00:08:43.348Z,17.90
2018-05-21T00:11:11.584Z,17.80
2018-05-21T00:13:39.811Z,17.80
2018-05-21T00:16:09.643Z,17.70
2018-05-21T00:18:37.819Z,17.70
2018-05-21T00:21:06.088Z,17.60
2018-05-21T00:26:03.773Z,17.60
2018-05-21T00:28:32.191Z,17.50
2018-05-21T00:31:01.559Z,17.50
2018-05-21T00:33:29.788Z,17.50
2018-05-21T00:35:58.055Z,17.50
2018-05-21T00:38:26.284Z,17.40
2018-05-21T00:40:54.515Z,17.40
2018-05-21T00:43:22.787Z,17.40
2018-05-21T00:45:51.014Z,17.30
2018-05-21T00:48:19.246Z,17.30
2018-05-21T00:53:16.959Z,17.20
2018-05-21T00:55:46.693Z,17.20
2018-05-21T00:58:15.359Z,17.10
2018-05-21T01:00:43.584Z,17.10
2018-05-21T01:03:11.820Z,17.10
2018-05-21T01:05:41.220Z,17.00
2018-05-21T01:08:09.445Z,17.00
2018-05-21T01:13:07.583Z,17.00
2018-05-21T01:15:36.677Z,16.90
2018-05-21T01:18:06.322Z,16.90
2018-05-21T01:20:34.588Z,16.90
2018-05-21T01:23:02.816Z,16.90
2018-05-21T01:25:31.043Z,16.80
2018-05-21T01:30:28.767Z,16.80
2018-05-21T01:35:26.487Z,16.70
2018-05-21T01:37:54.743Z,16.70
2018-05-21T01:40:22.971Z,16.70
2018-05-21T01:42:51.223Z,16.70
2018-05-21T01:45:19.504Z,16.60
2018-05-21T01:50:17.190Z,16.60
2018-05-21T01:52:45.463Z,16.60
2018-05-21T01:55:13.694Z,16.50
2018-05-21T01:57:41.932Z,16.50
2018-05-21T02:00:11.960Z,16.50
2018-05-21T02:02:40.182Z,16.40
2018-05-21T02:05:09.171Z,16.40
2018-05-21T02:07:37.875Z,16.40
2018-05-21T02:10:06.111Z,16.40
2018-05-21T02:12:35.108Z,16.30
2018-05-21T02:15:03.388Z,16.30
2018-05-21T02:17:32.759Z,16.20
2018-05-21T02:20:01.452Z,16.20
2018-05-21T02:22:30.536Z,16.20
2018-05-21T02:24:58.767Z,16.20
2018-05-21T02:27:27.004Z,16.10
2018-05-21T02:29:56.235Z,16.10
2018-05-21T02:32:25.247Z,16.10
2018-05-21T02:37:23.744Z,16.10
2018-05-21T02:39:51.982Z,16.10
2018-05-21T02:42:21.351Z,16.00
2018-05-21T02:44:49.610Z,16.00
2018-05-21T02:47:18.604Z,16.00
2018-05-21T02:49:46.862Z,16.00
2018-05-21T02:52:15.855Z,16.00
2018-05-21T02:54:44.855Z,15.90
2018-05-21T02:57:13.078Z,16.00
2018-05-21T02:59:42.484Z,15.90
2018-05-21T03:04:40.633Z,15.90
2018-05-21T03:07:09.663Z,15.90
2018-05-21T03:09:38.663Z,15.90
2018-05-21T03:12:07.664Z,15.90
2018-05-21T03:14:35.947Z,15.80
2018-05-21T03:17:04.952Z,15.80
2018-05-21T03:19:33.184Z,15.80
2018-05-21T03:22:01.446Z,15.70
2018-05-21T03:24:29.677Z,15.70
2018-05-21T03:26:57.902Z,15.70
2018-05-21T03:29:26.160Z,15.70
2018-05-21T03:31:54.397Z,15.60
2018-05-21T03:34:22.623Z,15.60
2018-05-21T03:36:52.039Z,15.60
2018-05-21T03:39:21.046Z,15.50
2018-05-21T03:41:50.048Z,15.50
2018-05-21T03:44:18.320Z,15.50
2018-05-21T03:46:46.546Z,15.50
2018-05-21T03:49:14.779Z,15.50
2018-05-21T03:54:12.908Z,15.50
2018-05-21T03:56:41.140Z,15.50
2018-05-21T04:01:57.027Z,15.60
2018-05-21T04:04:25.398Z,15.50
2018-05-21T04:06:54.287Z,15.60
2018-05-21T04:09:24.031Z,15.50
2018-05-21T04:11:52.354Z,15.50
2018-05-21T04:14:20.519Z,15.50
2018-05-21T04:16:50.263Z,15.50
2018-05-21T04:19:18.519Z,15.50
2018-05-21T04:21:46.751Z,15.60
2018-05-21T04:24:14.987Z,15.50
2018-05-21T04:26:44.403Z,15.50
2018-05-21T04:29:12.631Z,15.50
2018-05-21T04:31:40.862Z,15.50
2018-05-21T04:34:09.156Z,15.60
2018-05-21T04:36:37.389Z,15.50
2018-05-21T04:39:05.617Z,15.60
2018-05-21T04:41:35.169Z,15.60
2018-05-21T04:44:03.395Z,15.60
2018-05-21T04:46:31.642Z,15.70
2018-05-21T04:48:59.917Z,15.70
2018-05-21T04:51:28.139Z,15.70
2018-05-21T04:53:56.372Z,15.80
2018-05-21T04:56:25.411Z,15.80
2018-05-21T05:01:23.871Z,15.90
2018-05-21T05:03:52.135Z,16.00
2018-05-21T05:06:21.874Z,16.00
2018-05-21T05:08:50.872Z,16.10
2018-05-21T05:11:19.131Z,16.10
2018-05-21T05:13:48.503Z,16.20
2018-05-21T05:16:18.249Z,16.30
2018-05-21T05:18:47.278Z,16.30
2018-05-21T05:23:44.966Z,16.40
2018-05-21T05:26:13.232Z,16.60
2018-05-21T05:28:41.464Z,16.70
2018-05-21T05:33:39.178Z,16.90
2018-05-21T05:36:07.443Z,17.00
2018-05-21T05:38:35.640Z,17.00
2018-05-21T05:41:05.403Z,17.20
2018-05-21T05:43:33.632Z,17.30
2018-05-21T05:48:32.119Z,17.70
2018-05-21T05:51:01.852Z,17.80
2018-05-21T05:53:30.871Z,17.90
2018-05-21T05:58:28.595Z,18.10
2018-05-21T06:00:56.827Z,18.20
2018-05-21T06:03:25.096Z,18.40
2018-05-21T06:05:53.324Z,18.50
2018-05-21T06:08:21.556Z,18.70
2018-05-21T06:10:51.049Z,18.80
2018-05-21T06:13:20.047Z,19.00
2018-05-21T06:15:49.772Z,19.10
2018-05-21T06:18:18.140Z,19.30
2018-05-21T06:20:46.408Z,19.40
2018-05-21T06:23:15.403Z,19.50
2018-05-21T06:25:43.667Z,19.70
2018-05-21T06:28:12.868Z,19.80
2018-05-21T06:30:41.840Z,19.90
2018-05-21T06:33:10.088Z,20.00
2018-05-21T06:35:38.322Z,20.20
2018-05-21T06:38:06.557Z,20.30
2018-05-21T06:40:34.833Z,20.50
2018-05-21T06:43:03.064Z,20.60
2018-05-21T06:45:32.432Z,20.80
2018-05-21T06:48:00.703Z,21.00
2018-05-21T06:52:58.786Z,21.30
2018-05-21T06:55:27.059Z,21.50
2018-05-21T06:57:55.287Z,21.50
2018-05-21T07:02:53.387Z,21.60
2018-05-21T07:07:52.289Z,21.60
2018-05-21T07:10:20.471Z,21.70
2018-05-21T07:12:49.471Z,21.80
2018-05-21T07:15:17.699Z,22.00
2018-05-21T07:17:45.967Z,22.20
2018-05-21T07:20:14.958Z,22.30
2018-05-21T07:22:43.187Z,22.60
2018-05-21T07:25:12.426Z,22.70
2018-05-21T07:30:10.508Z,22.90
2018-05-21T07:35:08.648Z,23.00
2018-05-21T07:37:37.719Z,23.20
2018-05-21T07:42:35.823Z,23.20
2018-05-21T07:45:04.055Z,23.20
2018-05-21T07:47:32.339Z,23.20
2018-05-21T07:50:01.390Z,23.20
2018-05-21T07:52:29.573Z,23.20
2018-05-21T07:54:58.606Z,23.30
2018-05-21T07:57:27.611Z,23.40
2018-05-21T07:59:56.735Z,23.50
2018-05-21T08:04:54.464Z,23.80
2018-05-21T08:07:22.695Z,23.90
2018-05-21T08:09:50.955Z,24.00
2018-05-21T08:12:20.315Z,24.10
2018-05-21T08:14:49.915Z,24.20
2018-05-21T08:17:18.491Z,24.30
2018-05-21T08:27:16.874Z,24.70
2018-05-21T08:29:45.924Z,24.80
2018-05-21T08:32:14.191Z,25.00
2018-05-21T08:34:43.991Z,25.10
2018-05-21T08:37:12.219Z,25.20
2018-05-21T08:39:41.638Z,25.40
2018-05-21T08:42:09.861Z,25.50
2018-05-21T08:44:38.487Z,25.50
2018-05-21T08:49:38.036Z,25.70
2018-05-21T08:52:06.655Z,25.80
2018-05-21T08:54:37.438Z,25.90
2018-05-21T08:59:35.147Z,26.30
2018-05-21T09:02:03.411Z,26.60
2018-05-21T09:04:31.643Z,26.90
2018-05-21T09:09:29.364Z,27.50
2018-05-21T09:11:57.587Z,27.70
2018-05-21T09:14:25.824Z,27.90
2018-05-21T09:16:54.364Z,28.10
2018-05-21T09:19:22.597Z,28.30
2018-05-21T09:21:51.587Z,28.20
2018-05-21T09:26:49.915Z,27.90
2018-05-21T09:29:18.251Z,27.90
2018-05-21T09:31:46.643Z,28.10
2018-05-21T09:34:16.390Z,28.00
2018-05-21T09:36:44.624Z,27.70
2018-05-21T09:39:12.932Z,27.30
2018-05-21T09:41:42.287Z,27.20
2018-05-21T09:44:11.280Z,27.20
2018-05-21T09:49:09.751Z,27.30
2018-05-21T09:51:38.758Z,27.40
2018-05-21T09:54:07.023Z,27.40
2018-05-21T09:59:05.139Z,27.50
2018-05-21T10:01:34.335Z,27.70
2018-05-21T10:04:03.315Z,27.70
2018-05-21T10:09:02.238Z,28.20
2018-05-21T10:11:31.971Z,28.20
2018-05-21T10:14:01.703Z,28.20
2018-05-21T10:19:00.904Z,28.50
2018-05-21T10:23:58.619Z,28.50
2018-05-21T10:26:26.875Z,28.40
2018-05-21T10:28:56.619Z,28.40
2018-05-21T10:31:24.873Z,28.60
2018-05-21T10:33:53.091Z,28.70
2018-05-21T10:36:21.318Z,28.80
2018-05-21T10:38:49.599Z,28.90
2018-05-21T10:41:17.924Z,29.00
2018-05-21T10:43:46.244Z,29.10
2018-05-21T10:46:18.143Z,29.20
2018-05-21T10:48:47.878Z,29.30
2018-05-21T10:51:17.670Z,29.30
2018-05-21T10:53:46.667Z,29.40
2018-05-21T10:56:15.728Z,29.30
2018-05-21T10:58:44.278Z,29.40
2018-05-21T11:01:14.419Z,29.40
2018-05-21T11:03:44.178Z,29.50
2018-05-21T11:06:12.414Z,29.60
2018-05-21T11:11:10.666Z,29.60
2018-05-21T11:16:08.777Z,29.50
2018-05-21T11:18:37.047Z,29.40
2018-05-21T11:21:06.775Z,29.40
2018-05-21T11:23:36.210Z,29.30
2018-05-21T11:26:05.203Z,29.30
2018-05-21T11:28:33.801Z,29.40
2018-05-21T11:31:02.243Z,29.60
2018-05-21T11:33:31.607Z,29.70
2018-05-21T11:35:59.835Z,29.80
2018-05-21T11:38:28.094Z,29.70
2018-05-21T11:40:56.327Z,29.60
2018-05-21T11:43:24.555Z,29.50
2018-05-21T11:48:22.270Z,29.60
2018-05-21T11:50:50.888Z,29.60
2018-05-21T11:53:19.231Z,29.60
2018-05-21T11:55:48.219Z,29.60
2018-05-21T11:58:16.443Z,29.70
2018-05-21T12:00:44.938Z,29.80
2018-05-21T12:03:14.672Z,29.80
2018-05-21T12:05:43.662Z,29.90
2018-05-21T12:08:12.098Z,29.80
2018-05-21T12:10:41.468Z,29.70
2018-05-21T12:13:11.195Z,29.60
2018-05-21T12:15:39.459Z,29.50
2018-05-21T12:18:08.456Z,29.60
2018-05-21T12:23:07.686Z,29.60
2018-05-21T12:25:35.911Z,29.60
2018-05-21T12:30:34.760Z,29.50
2018-05-21T12:33:02.988Z,29.50
2018-05-21T12:35:32.395Z,29.30
2018-05-21T12:38:02.720Z,29.10
2018-05-21T12:40:32.670Z,29.20
2018-05-21T12:43:02.399Z,29.00
2018-05-21T12:48:00.856Z,28.70
2018-05-21T12:52:59.211Z,28.60
2018-05-21T12:55:28.943Z,28.60
2018-05-21T12:57:57.939Z,28.70
2018-05-21T13:00:26.203Z,28.60
2018-05-21T13:02:54.434Z,28.60
2018-05-21T13:05:23.432Z,28.50
2018-05-21T13:07:51.699Z,28.50
2018-05-21T13:10:20.694Z,28.50
2018-05-21T13:12:48.919Z,28.60
2018-05-21T13:15:18.044Z,28.70
2018-05-21T13:17:46.961Z,28.70
2018-05-21T13:20:15.187Z,28.80
2018-05-21T13:22:44.212Z,28.90
2018-05-21T13:25:12.442Z,28.90
2018-05-21T13:30:11.314Z,28.90
2018-05-21T13:35:08.991Z,28.90
2018-05-21T13:37:37.263Z,28.80
2018-05-21T13:40:05.487Z,28.90
2018-05-21T13:42:33.715Z,28.80
2018-05-21T13:45:03.487Z,28.80
2018-05-21T13:47:32.471Z,28.80
2018-05-21T13:50:01.474Z,28.80
2018-05-21T13:52:30.781Z,28.70
2018-05-21T13:54:59.699Z,28.60
2018-05-21T13:57:27.923Z,28.50
2018-05-21T13:59:56.188Z,28.50
2018-05-21T14:02:24.406Z,28.40
2018-05-21T14:09:52.327Z,28.20
2018-05-21T14:12:21.322Z,28.20
2018-05-21T14:14:49.575Z,28.10
2018-05-21T14:17:17.870Z,28.10
2018-05-21T14:19:46.798Z,28.00
2018-05-21T14:24:44.902Z,27.90
2018-05-21T14:27:13.897Z,27.70
2018-05-21T14:29:42.364Z,27.60
2018-05-21T14:32:11.376Z,27.50
2018-05-21T14:34:39.998Z,27.40
2018-05-21T14:37:09.764Z,27.40
2018-05-21T14:39:37.987Z,27.40
2018-05-21T14:42:06.215Z,27.50
2018-05-21T14:44:35.047Z,27.50
2018-05-21T14:47:04.042Z,27.50
2018-05-21T14:49:32.275Z,27.50
2018-05-21T14:52:01.464Z,27.50
2018-05-21T14:54:30.838Z,27.50
2018-05-21T14:57:00.566Z,27.50
2018-05-21T15:01:58.894Z,27.50
2018-05-21T15:04:27.065Z,27.40
2018-05-21T15:06:55.723Z,27.40
2018-05-21T15:14:23.307Z,27.30
2018-05-21T15:16:51.935Z,27.30
2018-05-21T15:19:20.188Z,27.30
2018-05-21T15:21:48.434Z,27.40
2018-05-21T15:24:18.175Z,27.30
2018-05-21T15:26:46.427Z,27.30
2018-05-21T15:29:15.837Z,27.30
2018-05-21T15:31:44.057Z,27.30
2018-05-21T15:34:13.046Z,27.30
2018-05-21T15:36:42.442Z,27.20
2018-05-21T15:39:10.667Z,27.10
2018-05-21T15:41:38.899Z,27.10
2018-05-21T15:44:08.655Z,27.10
2018-05-21T15:49:07.095Z,27.10
2018-05-21T15:54:05.215Z,27.10
2018-05-21T15:56:33.439Z,27.10
2018-05-21T15:59:03.388Z,27.10
2018-05-21T16:01:31.617Z,27.10
2018-05-21T16:06:29.736Z,27.10
2018-05-21T16:08:57.954Z,27.00
2018-05-21T16:11:26.179Z,27.00
2018-05-21T16:13:54.438Z,26.90
2018-05-21T16:16:22.659Z,26.90
2018-05-21T16:18:50.911Z,26.80
2018-05-21T16:21:20.315Z,26.80
2018-05-21T16:23:48.539Z,26.70
2018-05-21T16:26:16.762Z,26.80
2018-05-21T16:28:45.019Z,26.70
2018-05-21T16:31:14.754Z,26.70
2018-05-21T16:33:43.031Z,26.70
2018-05-21T16:38:42.580Z,26.70
2018-05-21T16:41:11.987Z,26.70
2018-05-21T16:43:40.211Z,26.70
2018-05-21T16:46:08.440Z,26.70
2018-05-21T16:48:37.468Z,26.70
2018-05-21T16:51:05.699Z,26.70
2018-05-21T16:53:33.923Z,26.70
2018-05-21T17:01:03.179Z,26.70
2018-05-21T17:03:31.447Z,26.60
2018-05-21T17:06:00.446Z,26.60
2018-05-21T17:08:28.667Z,26.60
2018-05-21T17:10:57.515Z,26.50
2018-05-21T17:13:26.881Z,26.50
2018-05-21T17:15:55.104Z,26.40
2018-05-21T17:18:23.363Z,26.40
2018-05-21T17:20:53.100Z,26.40
2018-05-21T17:25:51.210Z,26.20
2018-05-21T17:28:19.439Z,26.20
2018-05-21T17:30:48.436Z,26.20
2018-05-21T17:33:18.224Z,26.00
2018-05-21T17:35:47.664Z,26.00
2018-05-21T17:38:15.807Z,25.90
2018-05-21T17:40:44.087Z,25.80
2018-05-21T17:43:12.314Z,25.70
2018-05-21T17:45:40.542Z,25.70
2018-05-21T17:48:10.319Z,25.60
2018-05-21T17:53:08.398Z,25.50
2018-05-21T17:55:36.658Z,25.50
2018-05-21T17:58:04.891Z,25.30
2018-05-21T18:00:33.119Z,25.30
2018-05-21T18:05:30.870Z,25.20
2018-05-21T18:07:59.863Z,25.10
2018-05-21T18:10:28.146Z,25.10
2018-05-21T18:12:56.379Z,25.10
2018-05-21T18:15:25.370Z,25.00
2018-05-21T18:17:53.634Z,25.00
2018-05-21T18:20:21.863Z,24.90
2018-05-21T18:22:50.095Z,24.90
2018-05-21T18:25:18.511Z,24.80
2018-05-21T18:27:47.870Z,24.80
2018-05-21T18:30:16.243Z,24.70
2018-05-21T18:35:14.366Z,24.60
2018-05-21T18:40:12.835Z,24.50
2018-05-21T18:45:11.015Z,24.40
2018-05-21T18:47:39.282Z,24.40
2018-05-21T18:50:09.098Z,24.30
2018-05-21T18:52:37.386Z,24.20
2018-05-21T18:55:05.683Z,24.20
2018-05-21T18:57:34.023Z,24.20
2018-05-21T19:00:03.941Z,24.20
2018-05-21T19:02:32.366Z,24.10
2018-05-21T19:07:30.060Z,24.10
2018-05-21T19:09:58.334Z,24.10
2018-05-21T19:12:26.566Z,24.00
2018-05-21T19:14:54.786Z,24.00
2018-05-21T19:17:23.070Z,24.00
2018-05-21T19:22:20.787Z,23.90
2018-05-21T19:24:49.055Z,23.90
2018-05-21T19:27:17.321Z,23.80
2018-05-21T19:29:45.560Z,23.80
2018-05-21T19:32:14.966Z,23.80
2018-05-21T19:34:43.210Z,23.80
2018-05-21T19:39:41.461Z,23.70
2018-05-21T19:42:09.687Z,23.70
2018-05-21T19:44:38.001Z,23.60
2018-05-21T19:47:07.803Z,23.60
2018-05-21T19:49:36.096Z,23.60
2018-05-21T19:52:04.319Z,23.60
2018-05-21T19:54:32.607Z,23.50
2018-05-21T19:57:02.348Z,23.50
2018-05-21T19:59:30.575Z,23.50
2018-05-21T20:01:58.851Z,23.50
2018-05-21T20:04:27.078Z,23.40
2018-05-21T20:06:55.347Z,23.30
2018-05-21T20:09:23.731Z,23.30
2018-05-21T20:11:52.762Z,23.40
2018-05-21T20:14:21.944Z,23.30
2018-05-21T20:16:51.674Z,23.30
2018-05-21T20:19:19.933Z,23.30
2018-05-21T20:21:48.225Z,23.20
2018-05-21T20:26:48.068Z,23.20
2018-05-21T20:29:16.343Z,23.20
2018-05-21T20:31:44.608Z,23.10
2018-05-21T20:34:13.635Z,23.10
2018-05-21T20:36:41.931Z,23.10
2018-05-21T20:41:40.980Z,23.00
2018-05-21T20:46:40.207Z,23.00
2018-05-21T20:49:08.435Z,23.00
2018-05-21T20:51:36.675Z,23.00
2018-05-21T20:56:34.712Z,23.00
2018-05-21T20:59:03.707Z,23.10
2018-05-21T21:01:31.963Z,23.10
2018-05-21T21:04:01.000Z,23.00
2018-05-21T21:06:29.228Z,23.00
2018-05-21T21:08:57.491Z,22.90
2018-05-21T21:11:25.714Z,22.90
2018-05-21T21:13:53.947Z,22.90
2018-05-21T21:21:21.907Z,22.70
2018-05-21T21:23:50.878Z,22.50
2018-05-21T21:26:20.247Z,22.40
2018-05-21T21:28:48.567Z,22.30
2018-05-21T21:31:16.859Z,22.20
2018-05-21T21:33:45.127Z,22.10
2018-05-21T21:36:13.363Z,22.00
2018-05-21T21:38:41.734Z,21.90
2018-05-21T21:41:10.775Z,21.80
2018-05-21T21:43:38.999Z,21.70
2018-05-21T21:46:08.755Z,21.60
2018-05-21T21:48:37.871Z,21.50
2018-05-21T21:51:07.611Z,21.40
2018-05-21T21:56:05.339Z,21.30
2018-05-21T21:58:34.342Z,21.20
2018-05-21T22:01:02.695Z,21.10
2018-05-21T22:03:31.746Z,21.10
2018-05-21T22:06:00.123Z,21.00
2018-05-21T22:08:28.378Z,20.90
2018-05-21T22:10:56.815Z,20.80
2018-05-21T22:13:25.039Z,20.80
2018-05-21T22:15:53.274Z,20.80
2018-05-21T22:18:23.060Z,20.80
2018-05-21T22:20:51.304Z,20.80
2018-05-21T22:23:19.534Z,20.70
2018-05-21T22:25:48.579Z,20.70
2018-05-21T22:28:17.578Z,20.60
2018-05-21T22:30:45.816Z,20.60
2018-05-21T22:33:14.079Z,20.50
2018-05-21T22:35:43.836Z,20.50
2018-05-21T22:38:13.464Z,20.40
2018-05-21T22:43:11.570Z,20.40
2018-05-21T22:45:40.324Z,20.40
2018-05-21T22:48:08.584Z,20.40
2018-05-21T22:50:36.829Z,20.40
2018-05-21T22:55:34.531Z,20.30
2018-05-21T22:58:02.763Z,20.30
2018-05-21T23:00:32.161Z,20.40
2018-05-21T23:03:00.395Z,20.40
2018-05-21T23:05:28.600Z,20.30
2018-05-21T23:10:26.735Z,20.30
2018-05-21T23:12:54.971Z,20.30
2018-05-21T23:15:23.239Z,20.30
2018-05-21T23:17:51.466Z,20.30
2018-05-21T23:20:19.692Z,20.20
2018-05-21T23:25:17.423Z,20.20
2018-05-21T23:27:46.418Z,20.20
2018-05-21T23:30:15.448Z,20.10
2018-05-21T23:32:43.675Z,20.10
2018-05-21T23:35:12.671Z,20.10
2018-05-21T23:37:40.927Z,20.00
2018-05-21T23:40:09.919Z,20.00
2018-05-21T23:42:38.596Z,20.00
2018-05-21T23:45:08.327Z,19.90
2018-05-21T23:47:36.555Z,19.90
2018-05-21T23:50:05.223Z,19.90
2018-05-21T23:52:33.451Z,19.90
2018-05-21T23:57:32.671Z,19.80
